Aviation Digital Data Service (ADDS)

Output produced by METARs form (1910 UTC 18 June 2019)
found at http://www.aviationweather.gov/metar/data/
 
LGPZ 181850Z 27005KT 9999 FEW025 24/22 Q1013 RMK FEW080 BKN180 BLU
TAF LGPZ 181700Z 1818/1918 27010KT 9999 FEW025 SCT080 
     PROB30 
     TEMPO 1818/1820 5000 TSRA FEW018CB BKN020 BKN070 
     BECMG 1818/1820 VRB05KT FEW020 SCT025 
     PROB30 
     TEMPO 1912/1918 5000 TSRA FEW018CB BKN020 BKN070
       
LGAD 181850Z VRB03KT 9999 FEW020 25/19 Q1013
TAF LGAD 181700Z 1818/1903 30006KT 9999 FEW020 
     BECMG 1822/1824 VRB03KT
       
LGRX 181850Z 00000KT 9999 FEW020 26/19 Q1012 RMK SCT100 BKN200 BLU
TAF LGRX 181700Z 1818/1903 26006KT 9999 FEW025 
     BECMG 1822/1824 VRB03KT
       
LGHI 181850Z 18002KT 9999 FEW020CB 27/19 Q1010
TAF LGHI 181700Z 1818/1903 01012KT 9999 FEW025
       
LGRP 181850Z 23007KT 9999 FEW020 25/21 Q1009 NOSIG
TAF LGRP 181700Z 1818/1918 26010KT 9999 FEW020 
     PROB30 
     TEMPO 1912/1916 5000 TSRA FEW018CB BKN025
       
LGAL 181850Z 00000KT 9999 FEW020TCU SCT030 27/19 Q1012
TAF LGAL 181700Z 1818/1903 02010KT 9999 SCT025 
     PROB30 
     TEMPO 1818/1821 5000 TSRA FEW016CB BKN020 BKN060
       
LGEL 181850Z 00000KT 9999 FEW018TCU SCT025 26/18 Q1012
TAF LGEL 181700Z 1818/1918 33005KT 9999 FEW025 
     BECMG 1910/1912 18010KT 
     PROB30 
     TEMPO 1912/1918 5000 TSRA FEW018CB BKN025
       
LGAV 181850Z VRB01KT 9999 FEW030 26/14 Q1013 NOSIG
TAF LGAV 181700Z 1818/1918 28006KT 9999 FEW025 
     BECMG 1904/1906 03010KT 
     PROB30 
     TEMPO 1912/1918 5000 TSRA FEW020CB SCT025
       
LGKZ 181850Z AUTO 29004KT 240V320 //// -RA ////// 20/11 Q1017 RE//
LGIO 181850Z 00000KT 9999 FEW035 21/15 Q1015
TAF LGIO 181700Z 1818/1903 VRB03KT 9999 SCT025 SCT080 
     BECMG 1818/1820 FEW030
       
LGKR 181850Z 27006KT 9999 FEW025 28/23 Q1012 NOSIG
TAF LGKR 181700Z 1818/1918 25006KT 9999 FEW030 
     BECMG 1818/1820 33008KT 
     BECMG 1901/1903 VRB05KT
       
LGKL 181850Z 00000KT 9999 FEW030 22/14 Q1013
TAF LGKL 181700Z 1818/1903 33008KT 9999 FEW025 SCT080
       
LGKP 181850Z 31006KT 9999 FEW018 23/21 Q1011
TAF LGKP 181700Z 1818/1903 31015G25KT 9999 FEW018
       
TAF LGTL 181700Z 1818/1903 35010KT 9999 FEW025
       
LGKF 181850Z 33005KT CAVOK 26/22 Q1013
TAF LGKF 181700Z 1818/1903 30010KT 9999 FEW020
       
LGKC 181450Z 06006KT 9999 FEW025 28/19 Q1014
TAF LGKC 181700Z 1818/1903 03006KT 9999 FEW018
       
LGKO 181850Z 31009KT 9999 FEW020 24/20 Q1010
TAF LGKO 181700Z 1818/1918 33015KT 9999 FEW018 
     PROB30 
     TEMPO 1912/1916 5000 TSRA FEW018CB BKN025 
     TEMPO 1818/1821 33015G25KT
       
TAF LGLR 181700Z 1818/1903 VRB03KT 9999 SCT025 BKN080 
     PROB40 
     TEMPO 1818/1821 6000 TSRA FEW018CB SCT025 BKN080 
     BECMG 1822/1824 FEW025 SCT080
       
LGLM 181850Z 35005KT 9999 FEW020 26/18 Q1012
TAF LGLM 181700Z 1818/1903 04012KT 9999 FEW025
       
LGTS 181850Z VRB03KT 9999 FEW020TCU 28/19 Q1012 NOSIG
TAF LGTS 181700Z 1818/1918 17012KT 9999 FEW025 
     PROB40 
     TEMPO 1818/1820 4000 TSRA FEW018CB BKN025 
     BECMG 1818/1820 VRB03KT 
     PROB40 
     TEMPO 1908/1918 4000 TSRA FEW018CB BKN025 
     BECMG 1911/1913 18010KT
       
LGKV 181850Z 14006KT 9999 FEW025TCU FEW030CB SCT080 26/21 Q1012
TAF AMD LGKV 181800Z 1818/1918 07005KT 9999 FEW030 SCT080 
     PROB40 
     TEMPO 1818/1822 5000 TSRA FEW018CB SCT080 
     PROB40 
     TEMPO 1908/1912 4000 TSRA FEW018CB BKN025 
     BECMG 1911/1913 22010KT
       
LGMK 181850Z 33011KT CAVOK 24/14 Q1011
TAF LGMK 181700Z 1818/1903 35018KT 9999 FEW020 
     TEMPO 1818/1820 35015G25KT
       
LGMT 181850Z 00000KT 9999 FEW025 27/19 Q1011
TAF LGMT 181700Z 1818/1903 33012KT 9999 FEW025
       
LGBL 181850Z 00000KT 9999 FEW030 SCT080 24/15 Q1013
TAF LGBL 181700Z 1818/1903 11010KT 9999 SCT025 SCT080 
     PROB30 
     TEMPO 1818/1819 6000 TSRA FEW018CB SCT025 BKN080 
     BECMG 1819/1821 28006KT
       
LGIR 181850Z 30004KT CAVOK 25/19 Q1012 NOSIG
TAF LGIR 181700Z 1818/1918 30015KT 9999 FEW025 
     BECMG 1818/1820 VRB05KT
       
LGSM 181850Z 36005KT 9999 SCT025 26/18 Q1009
TAF LGSM 181700Z 1818/1903 36010KT 9999 FEW020
       
LGSR 181850Z 31006KT CAVOK 25/17 Q1012
TAF LGSR 181700Z 1818/1918 32015KT 9999 FEW025
       
LGSK 181750Z 00000KT 9999 FEW030 26/19 Q1012
TAF LGSK 181700Z 1818/1903 VRB05KT 9999 FEW030
       
TAF LGSY 181700Z 1818/1903 35010KT 9999 FEW025 
     BECMG 1900/1902 04010KT
       
LGSA 181850Z 13004KT 9999 FEW020 25/20 Q1012
TAF LGSA 181700Z 1818/1918 04010KT 9999 FEW025 
     BECMG 1818/1820 VRB05KT
       
LGSO 181850Z AUTO 30011KT //// // ////// 26/14 Q1012 RE//
TAF LGTG 181700Z 1818/1903 33007KT 9999 FEW025 SCT070 
     BECMG 1819/1821 VRB03KT
       
LGZA 181850Z 00000KT 9999 FEW030 27/21 Q1013
TAF LGZA 181700Z 1818/1903 04005KT 9999 FEW020